createdAt,value
2018-07-30T00:02:16.497Z,25.03
2018-07-30T00:04:46.758Z,24.98
2018-07-30T00:07:17.034Z,24.98
2018-07-30T00:09:47.521Z,24.96
2018-07-30T00:12:17.880Z,24.89
2018-07-30T00:14:48.199Z,24.90
2018-07-30T00:17:18.580Z,24.82
2018-07-30T00:19:48.914Z,24.83
2018-07-30T00:22:19.260Z,24.80
2018-07-30T00:24:49.632Z,24.65
2018-07-30T00:27:19.890Z,24.59
2018-07-30T00:29:50.424Z,24.50
2018-07-30T00:32:20.965Z,24.47
2018-07-30T00:34:51.266Z,24.31
2018-07-30T00:37:21.744Z,24.26
2018-07-30T00:39:52.350Z,24.20
2018-07-30T00:42:23.086Z,24.13
2018-07-30T00:44:53.675Z,24.04
2018-07-30T00:47:24.349Z,24.03
2018-07-30T00:49:54.852Z,24.00
2018-07-30T00:52:25.510Z,24.01
2018-07-30T00:54:56.221Z,23.99
2018-07-30T00:57:26.651Z,23.85
2018-07-30T00:59:57.203Z,23.72
2018-07-30T01:02:27.695Z,23.63
2018-07-30T01:04:58.115Z,23.56
2018-07-30T01:07:28.662Z,23.62
2018-07-30T01:09:59.264Z,23.67
2018-07-30T01:12:29.707Z,23.73
2018-07-30T01:15:00.196Z,23.78
2018-07-30T01:17:30.728Z,23.84
2018-07-30T01:20:01.165Z,23.89
2018-07-30T01:22:31.764Z,23.89
2018-07-30T01:25:02.271Z,23.92
2018-07-30T01:27:32.796Z,23.99
2018-07-30T01:30:03.269Z,24.01
2018-07-30T01:32:33.709Z,24.05
2018-07-30T01:35:04.421Z,24.01
2018-07-30T01:37:34.886Z,24.11
2018-07-30T01:40:06.679Z,24.17
2018-07-30T01:42:37.086Z,24.23
2018-07-30T01:45:07.526Z,24.23
2018-07-30T01:47:37.900Z,24.17
2018-07-30T01:50:08.279Z,24.39
2018-07-30T01:52:38.713Z,24.39
2018-07-30T01:55:09.241Z,24.37
2018-07-30T01:57:39.807Z,24.20
2018-07-30T02:00:10.387Z,23.97
2018-07-30T02:02:42.651Z,23.98
2018-07-30T02:05:13.424Z,23.91
2018-07-30T02:07:43.863Z,23.93
2018-07-30T02:10:14.166Z,23.98
2018-07-30T02:12:44.720Z,23.76
2018-07-30T02:15:16.926Z,23.76
2018-07-30T02:17:47.576Z,23.85
2018-07-30T02:20:17.912Z,23.86
2018-07-30T02:22:48.498Z,23.98
2018-07-30T02:25:18.981Z,24.06
2018-07-30T02:27:49.648Z,24.16
2018-07-30T02:30:20.055Z,24.25
2018-07-30T02:32:50.461Z,24.28
2018-07-30T02:35:20.793Z,24.41
2018-07-30T02:37:51.425Z,24.40
2018-07-30T02:40:21.908Z,24.50
2018-07-30T02:42:52.253Z,24.51
2018-07-30T02:45:22.712Z,24.62
2018-07-30T02:47:53.317Z,24.61
2018-07-30T02:50:23.805Z,24.64
2018-07-30T02:52:54.231Z,24.71
2018-07-30T02:55:24.866Z,24.77
2018-07-30T02:57:55.433Z,24.70
2018-07-30T03:00:26.120Z,24.78
2018-07-30T03:02:56.524Z,24.82
2018-07-30T03:05:27.149Z,24.73
2018-07-30T03:07:57.779Z,24.74
2018-07-30T03:10:28.213Z,24.85
2018-07-30T03:12:58.653Z,24.82
2018-07-30T03:15:29.514Z,24.77
2018-07-30T03:18:00.031Z,24.85
2018-07-30T03:20:30.660Z,24.82
2018-07-30T03:23:01.201Z,24.86
2018-07-30T03:25:31.861Z,24.79
2018-07-30T03:28:02.553Z,24.75
2018-07-30T03:30:33.223Z,24.63
2018-07-30T03:33:03.485Z,24.47
2018-07-30T03:35:34.001Z,24.43
2018-07-30T03:38:04.663Z,24.33
2018-07-30T03:40:35.118Z,24.33
2018-07-30T03:43:05.629Z,24.29
2018-07-30T03:45:36.169Z,24.05
2018-07-30T03:48:06.674Z,24.15
2018-07-30T03:50:37.030Z,24.07
2018-07-30T03:53:07.546Z,24.02
2018-07-30T03:55:37.930Z,23.98
2018-07-30T03:58:08.493Z,23.95
2018-07-30T04:00:38.870Z,23.91
2018-07-30T04:03:09.350Z,24.02
2018-07-30T04:05:39.751Z,24.16
2018-07-30T04:08:10.117Z,24.17
2018-07-30T04:10:40.663Z,24.18
2018-07-30T04:13:10.971Z,24.12
2018-07-30T04:15:41.445Z,24.01
2018-07-30T04:18:11.982Z,24.06
2018-07-30T04:20:42.398Z,23.88
2018-07-30T04:23:12.877Z,23.87
2018-07-30T04:25:43.351Z,23.85
2018-07-30T04:28:13.725Z,23.75
2018-07-30T04:30:44.244Z,23.69
2018-07-30T04:33:14.823Z,23.79
2018-07-30T04:35:45.257Z,23.81
2018-07-30T04:38:18.313Z,23.79
2018-07-30T04:40:49.350Z,23.99
2018-07-30T04:43:19.770Z,24.28
2018-07-30T04:45:50.089Z,24.45
2018-07-30T04:48:20.412Z,24.70
2018-07-30T04:50:50.793Z,24.86
2018-07-30T04:53:21.387Z,24.97
2018-07-30T04:55:51.662Z,24.93
2018-07-30T04:58:21.954Z,25.23
2018-07-30T05:00:52.590Z,24.98
2018-07-30T05:03:22.962Z,24.81
2018-07-30T05:05:53.459Z,24.90
2018-07-30T05:08:24.076Z,24.88
2018-07-30T05:10:54.460Z,24.96
2018-07-30T05:13:24.938Z,25.25
2018-07-30T05:15:55.606Z,25.35
2018-07-30T05:18:25.923Z,25.63
2018-07-30T05:20:56.271Z,25.73
2018-07-30T05:23:27.663Z,25.72
2018-07-30T05:25:58.513Z,25.90
2018-07-30T05:28:28.804Z,25.93
2018-07-30T05:30:59.397Z,26.15
2018-07-30T05:33:29.877Z,26.25
2018-07-30T05:36:00.357Z,26.34
2018-07-30T05:38:30.738Z,26.50
2018-07-30T05:41:01.190Z,26.68
2018-07-30T05:43:32.524Z,26.96
2018-07-30T05:46:02.935Z,27.06
2018-07-30T05:48:33.282Z,27.00
2018-07-30T05:51:03.591Z,27.13
2018-07-30T05:53:34.037Z,27.31
2018-07-30T05:56:04.725Z,27.32
2018-07-30T05:58:35.024Z,26.88
2018-07-30T06:01:05.480Z,27.17
2018-07-30T06:03:35.876Z,27.31
2018-07-30T06:06:06.538Z,27.45
2018-07-30T06:08:37.015Z,27.68
2018-07-30T06:11:07.427Z,27.92
2018-07-30T06:13:37.867Z,28.47
2018-07-30T06:16:08.341Z,29.49
2018-07-30T06:18:38.705Z,29.92
2018-07-30T06:21:09.214Z,30.50
2018-07-30T06:23:39.884Z,31.38
2018-07-30T06:26:10.214Z,32.06
2018-07-30T06:28:40.727Z,31.80
2018-07-30T06:31:11.171Z,31.55
2018-07-30T06:33:41.606Z,31.31
2018-07-30T06:36:11.961Z,31.27
2018-07-30T06:38:42.310Z,31.44
2018-07-30T06:41:12.770Z,31.08
2018-07-30T06:43:43.177Z,31.01
2018-07-30T06:46:13.492Z,30.85
2018-07-30T06:48:44.008Z,31.91
2018-07-30T06:51:14.503Z,32.83
2018-07-30T06:53:44.894Z,33.46
2018-07-30T06:56:15.479Z,34.47
2018-07-30T06:58:46.052Z,35.62
2018-07-30T07:01:16.503Z,36.54
2018-07-30T07:03:47.099Z,37.03
2018-07-30T07:06:17.620Z,37.18
2018-07-30T07:08:47.920Z,37.28
2018-07-30T07:11:18.333Z,38.31
2018-07-30T07:13:48.788Z,37.76
2018-07-30T07:16:19.164Z,37.82
2018-07-30T07:18:49.633Z,37.29
2018-07-30T07:21:20.152Z,37.59
2018-07-30T07:23:50.467Z,37.40
2018-07-30T07:26:20.842Z,36.69
2018-07-30T07:28:51.556Z,36.41
2018-07-30T07:31:22.142Z,37.30
2018-07-30T07:33:52.541Z,37.38
2018-07-30T07:36:23.009Z,37.47
2018-07-30T07:38:54.520Z,36.13
2018-07-30T07:41:25.219Z,34.91
2018-07-30T07:43:55.537Z,35.62
2018-07-30T07:46:25.925Z,36.24
2018-07-30T07:48:56.641Z,35.70
2018-07-30T07:51:29.072Z,35.81
2018-07-30T07:53:59.472Z,36.73
2018-07-30T07:56:30.043Z,37.38
2018-07-30T07:59:00.779Z,36.75
2018-07-30T08:01:32.374Z,37.16
2018-07-30T08:04:02.906Z,36.53
2018-07-30T08:06:33.343Z,37.28
2018-07-30T08:09:03.857Z,38.08
2018-07-30T08:11:34.308Z,36.59
2018-07-30T08:14:04.739Z,37.49
2018-07-30T08:16:35.172Z,37.43
2018-07-30T08:19:05.962Z,36.85
2018-07-30T08:21:41.307Z,36.89
2018-07-30T08:24:12.086Z,38.21
2018-07-30T08:26:42.477Z,37.38
2018-07-30T08:29:12.940Z,38.44
2018-07-30T08:31:43.686Z,38.75
2018-07-30T08:34:14.329Z,39.25
2018-07-30T08:36:44.806Z,38.63
2018-07-30T08:39:15.478Z,40.53
2018-07-30T08:41:48.284Z,40.61
2018-07-30T08:44:20.010Z,39.87
2018-07-30T08:46:50.540Z,39.12
2018-07-30T08:49:20.819Z,38.70
2018-07-30T08:51:51.370Z,39.37
2018-07-30T08:54:21.778Z,41.29
2018-07-30T08:56:52.205Z,41.41
2018-07-30T08:59:22.566Z,39.26
2018-07-30T09:01:52.962Z,39.03
2018-07-30T09:04:25.353Z,37.52
2018-07-30T09:06:56.788Z,38.20
2018-07-30T09:09:27.226Z,37.49
2018-07-30T09:11:57.770Z,35.01
2018-07-30T09:14:28.376Z,34.95
2018-07-30T09:16:59.039Z,35.66
2018-07-30T09:19:30.311Z,36.61
2018-07-30T09:22:02.085Z,38.01
2018-07-30T09:24:32.433Z,39.30
2018-07-30T09:27:02.833Z,38.04
2018-07-30T09:29:34.229Z,37.01
2018-07-30T09:32:04.933Z,37.58
2018-07-30T09:34:35.568Z,37.56
2018-07-30T09:37:06.223Z,36.93
2018-07-30T09:39:36.765Z,37.77
2018-07-30T09:42:07.249Z,39.27
2018-07-30T09:44:38.866Z,39.07
2018-07-30T09:47:09.294Z,40.12
2018-07-30T09:49:39.667Z,41.49
2018-07-30T09:52:10.249Z,41.14
2018-07-30T09:54:40.763Z,41.10
2018-07-30T09:57:11.135Z,40.70
2018-07-30T09:59:41.696Z,40.59
2018-07-30T10:02:12.275Z,41.02
2018-07-30T10:04:45.901Z,39.70
2018-07-30T10:07:16.499Z,40.36
2018-07-30T10:09:46.812Z,39.68
2018-07-30T10:12:17.145Z,40.34
2018-07-30T10:14:47.498Z,39.94
2018-07-30T10:17:17.889Z,40.57
2018-07-30T10:19:48.228Z,39.46
2018-07-30T10:22:18.842Z,38.04
2018-07-30T10:24:49.539Z,38.66
2018-07-30T10:27:20.032Z,40.00
2018-07-30T10:29:50.464Z,40.56
2018-07-30T10:32:20.793Z,40.67
2018-07-30T10:34:51.057Z,40.88
2018-07-30T10:37:21.682Z,39.19
2018-07-30T10:39:52.228Z,39.92
2018-07-30T10:42:22.644Z,39.83
2018-07-30T10:44:53.260Z,40.29
2018-07-30T10:47:23.712Z,40.64
2018-07-30T10:49:54.260Z,40.16
2018-07-30T10:52:24.641Z,38.37
2018-07-30T10:54:55.416Z,37.75
2018-07-30T10:57:25.859Z,37.68
2018-07-30T10:59:56.250Z,39.05
2018-07-30T11:02:26.844Z,40.20
2018-07-30T11:04:57.218Z,38.89
2018-07-30T11:07:27.562Z,39.17
2018-07-30T11:09:58.186Z,38.21
2018-07-30T11:12:28.812Z,36.72
2018-07-30T11:14:59.257Z,36.62
2018-07-30T11:17:29.677Z,35.68
2018-07-30T11:20:00.216Z,35.22
2018-07-30T11:22:30.609Z,34.98
2018-07-30T11:25:00.977Z,34.97
2018-07-30T11:27:31.637Z,35.03
2018-07-30T11:30:02.598Z,34.12
2018-07-30T11:32:32.958Z,33.87
2018-07-30T11:35:03.265Z,33.21
2018-07-30T11:37:33.782Z,32.54
2018-07-30T11:40:04.267Z,32.26
2018-07-30T11:42:35.608Z,31.80
2018-07-30T11:45:06.374Z,31.46
2018-07-30T11:47:36.716Z,31.22
2018-07-30T11:50:07.635Z,30.83
2018-07-30T11:52:38.054Z,30.73
2018-07-30T11:55:08.454Z,30.25
2018-07-30T11:57:38.768Z,30.39
2018-07-30T12:00:09.342Z,30.37
2018-07-30T12:02:39.629Z,30.38
2018-07-30T12:05:10.214Z,30.62
2018-07-30T12:07:40.614Z,30.57
2018-07-30T12:10:11.174Z,30.58
2018-07-30T12:12:41.603Z,30.09
2018-07-30T12:15:11.621Z,29.89
2018-07-30T12:17:42.697Z,30.05
2018-07-30T12:20:13.260Z,30.27
2018-07-30T12:22:43.776Z,29.92
2018-07-30T12:25:14.252Z,29.88
2018-07-30T12:27:45.860Z,29.92
2018-07-30T12:30:16.532Z,30.31
2018-07-30T12:32:46.867Z,30.60
2018-07-30T12:35:17.449Z,30.40
2018-07-30T12:37:47.850Z,30.51
2018-07-30T12:40:18.305Z,30.61
2018-07-30T12:42:48.661Z,30.60
2018-07-30T12:45:24.268Z,30.62
2018-07-30T12:47:54.588Z,30.72
2018-07-30T12:50:25.372Z,30.61
2018-07-30T12:52:56.746Z,30.58
2018-07-30T12:55:27.122Z,30.77
2018-07-30T12:57:57.533Z,30.59
2018-07-30T13:00:28.718Z,30.56
2018-07-30T13:02:59.525Z,30.53
2018-07-30T13:05:29.973Z,30.69
2018-07-30T13:08:00.340Z,30.58
2018-07-30T13:10:31.030Z,30.68
2018-07-30T13:13:01.359Z,30.97
2018-07-30T13:15:31.861Z,31.17
2018-07-30T13:18:02.524Z,31.39
2018-07-30T13:20:33.092Z,31.53
2018-07-30T13:23:03.557Z,31.69
2018-07-30T13:25:34.032Z,31.91
2018-07-30T13:28:04.739Z,31.77
2018-07-30T13:30:35.189Z,32.22
2018-07-30T13:33:05.848Z,32.38
2018-07-30T13:35:36.176Z,32.87
2018-07-30T13:38:07.266Z,32.85
2018-07-30T13:40:37.923Z,32.69
2018-07-30T13:43:08.392Z,33.00
2018-07-30T13:45:38.881Z,33.27
2018-07-30T13:48:09.349Z,33.28
2018-07-30T13:50:39.731Z,33.37
2018-07-30T13:53:10.394Z,33.52
2018-07-30T13:55:40.909Z,33.57
2018-07-30T13:58:11.575Z,33.16
2018-07-30T14:00:42.215Z,33.37
2018-07-30T14:03:12.707Z,33.14
2018-07-30T14:05:43.493Z,33.19
2018-07-30T14:08:14.832Z,33.20
2018-07-30T14:10:45.414Z,33.22
2018-07-30T14:13:16.006Z,33.11
2018-07-30T14:15:46.705Z,33.03
2018-07-30T14:18:17.208Z,32.73
2018-07-30T14:20:47.640Z,32.46
2018-07-30T14:23:19.075Z,32.39
2018-07-30T14:25:49.629Z,32.70
2018-07-30T14:28:20.241Z,32.77
2018-07-30T14:30:50.708Z,32.62
2018-07-30T14:33:21.087Z,32.73
2018-07-30T14:35:51.721Z,32.80
2018-07-30T14:38:22.221Z,32.99
2018-07-30T14:40:52.693Z,33.40
2018-07-30T14:43:23.290Z,33.32
2018-07-30T14:45:53.881Z,33.23
2018-07-30T14:48:25.406Z,32.98
2018-07-30T14:50:56.327Z,33.20
2018-07-30T14:53:26.597Z,33.32
2018-07-30T14:55:57.187Z,33.41
2018-07-30T14:58:27.906Z,33.47
2018-07-30T15:00:58.506Z,33.45
2018-07-30T15:03:29.770Z,33.18
2018-07-30T15:06:00.480Z,32.90
2018-07-30T15:08:30.922Z,32.76
2018-07-30T15:11:01.282Z,32.50
2018-07-30T15:13:32.518Z,31.08
2018-07-30T15:16:03.888Z,30.19
2018-07-30T15:18:34.287Z,29.79
2018-07-30T15:21:04.932Z,29.41
2018-07-30T15:23:35.416Z,28.51
2018-07-30T15:26:06.889Z,27.34
2018-07-30T15:28:37.416Z,26.71
2018-07-30T15:31:08.007Z,26.43
2018-07-30T15:33:38.562Z,26.05
2018-07-30T15:36:08.959Z,25.94
2018-07-30T15:38:39.272Z,25.92
2018-07-30T15:41:09.719Z,25.76
2018-07-30T15:43:40.394Z,25.64
2018-07-30T15:46:10.860Z,25.66
2018-07-30T15:48:41.265Z,25.46
2018-07-30T15:51:11.876Z,25.50
2018-07-30T15:53:42.346Z,25.52
2018-07-30T15:56:12.907Z,25.45
2018-07-30T15:58:44.167Z,25.55
2018-07-30T16:01:14.763Z,25.51
2018-07-30T16:03:45.138Z,25.45
2018-07-30T16:06:15.682Z,25.55
2018-07-30T16:08:46.169Z,25.49
2018-07-30T16:11:16.732Z,25.34
2018-07-30T16:13:47.728Z,25.33
2018-07-30T16:16:18.389Z,25.37
2018-07-30T16:18:49.000Z,25.57
2018-07-30T16:21:19.478Z,25.56
2018-07-30T16:23:49.824Z,25.60
2018-07-30T16:26:20.422Z,25.57
2018-07-30T16:28:51.024Z,25.56
2018-07-30T16:31:21.288Z,25.71
2018-07-30T16:33:51.941Z,25.76
2018-07-30T16:36:22.380Z,25.80
2018-07-30T16:38:53.166Z,25.83
2018-07-30T16:41:23.709Z,25.88
2018-07-30T16:43:54.318Z,25.97
2018-07-30T16:46:24.697Z,26.02
2018-07-30T16:48:55.204Z,26.16
2018-07-30T16:51:25.558Z,26.09
2018-07-30T16:53:57.032Z,26.31
2018-07-30T16:56:27.639Z,26.30
2018-07-30T16:58:58.190Z,26.37
2018-07-30T17:01:28.676Z,26.52
2018-07-30T17:03:59.146Z,26.68
2018-07-30T17:06:30.480Z,26.73
2018-07-30T17:09:01.013Z,26.99
2018-07-30T17:11:31.641Z,26.94
2018-07-30T17:14:02.276Z,26.96
2018-07-30T17:16:32.756Z,26.91
2018-07-30T17:19:03.445Z,26.93
2018-07-30T17:21:34.125Z,26.90
2018-07-30T17:24:04.749Z,26.36
2018-07-30T17:26:35.302Z,26.94
2018-07-30T17:29:06.078Z,26.94
2018-07-30T17:31:36.518Z,27.01
2018-07-30T17:34:07.157Z,26.75
2018-07-30T17:36:37.476Z,26.68
2018-07-30T17:39:09.730Z,26.67
2018-07-30T17:41:40.206Z,26.62
2018-07-30T17:44:10.815Z,26.58
2018-07-30T17:46:41.266Z,26.57
2018-07-30T17:49:12.578Z,26.51
2018-07-30T17:51:43.263Z,26.50
2018-07-30T17:54:13.782Z,26.43
2018-07-30T17:56:44.186Z,26.28
2018-07-30T17:59:14.893Z,26.26
2018-07-30T18:01:45.316Z,26.16
2018-07-30T18:04:15.750Z,26.15
2018-07-30T18:06:46.366Z,26.13
2018-07-30T18:09:16.844Z,26.00
2018-07-30T18:11:47.266Z,26.13
2018-07-30T18:14:17.838Z,26.01
2018-07-30T18:16:48.499Z,25.96
2018-07-30T18:19:18.860Z,26.00
2018-07-30T18:21:49.276Z,26.07
2018-07-30T18:24:21.389Z,26.00
2018-07-30T18:26:54.181Z,25.95
2018-07-30T18:29:27.180Z,25.87
2018-07-30T18:32:00.091Z,25.77
2018-07-30T18:34:33.443Z,25.77
2018-07-30T18:37:06.603Z,25.74
2018-07-30T18:39:39.602Z,25.73
2018-07-30T18:42:12.335Z,25.77
2018-07-30T18:44:45.014Z,25.76
2018-07-30T18:47:17.945Z,25.75
2018-07-30T18:49:51.947Z,25.72
2018-07-30T18:52:24.330Z,25.72
2018-07-30T18:54:57.089Z,25.80
2018-07-30T18:57:29.965Z,25.79
2018-07-30T19:00:02.755Z,25.77
2018-07-30T19:02:35.445Z,25.75
2018-07-30T19:05:08.824Z,25.76
2018-07-30T19:07:42.444Z,25.86
2018-07-30T19:10:15.667Z,25.84
2018-07-30T19:12:48.953Z,25.81
2018-07-30T19:15:21.582Z,25.75
2018-07-30T19:17:54.182Z,25.64
2018-07-30T19:20:26.706Z,25.59
2018-07-30T19:22:59.364Z,25.52
2018-07-30T19:25:32.681Z,25.48
2018-07-30T19:28:05.354Z,25.42
2018-07-30T19:30:38.088Z,25.39
2018-07-30T19:33:11.015Z,25.49
2018-07-30T19:35:43.643Z,25.47
2018-07-30T19:38:17.463Z,25.43
2018-07-30T19:40:50.138Z,25.46
2018-07-30T19:43:23.111Z,25.47
2018-07-30T19:45:55.904Z,25.53
2018-07-30T19:48:28.496Z,25.62
2018-07-30T19:51:02.222Z,25.64
2018-07-30T19:53:38.864Z,25.65
2018-07-30T19:56:11.522Z,25.70
2018-07-30T19:58:44.227Z,25.73
2018-07-30T20:01:17.790Z,25.71
2018-07-30T20:03:50.412Z,25.82
2018-07-30T20:06:23.063Z,25.88
2018-07-30T20:08:55.616Z,25.88
2018-07-30T20:11:28.745Z,25.85
2018-07-30T20:14:02.760Z,25.69
2018-07-30T20:16:37.640Z,25.78
2018-07-30T20:19:10.171Z,25.68
2018-07-30T20:21:43.001Z,25.63
2018-07-30T20:24:15.946Z,25.63
2018-07-30T20:26:48.255Z,25.57
2018-07-30T20:29:20.873Z,25.53
2018-07-30T20:31:54.686Z,25.52
2018-07-30T20:34:27.558Z,25.48
2018-07-30T20:37:00.335Z,25.44
2018-07-30T20:39:33.300Z,25.43
2018-07-30T20:42:06.737Z,25.42
2018-07-30T20:44:39.818Z,25.36
2018-07-30T20:47:14.470Z,25.39
2018-07-30T20:49:47.588Z,25.46
2018-07-30T20:52:21.176Z,25.39
2018-07-30T20:54:54.254Z,25.35
2018-07-30T20:57:26.996Z,25.43
2018-07-30T21:00:00.575Z,25.36
2018-07-30T21:02:31.336Z,25.36
2018-07-30T21:05:02.985Z,25.42
2018-07-30T21:07:33.539Z,25.47
2018-07-30T21:10:04.424Z,25.52
2018-07-30T21:12:34.823Z,25.45
2018-07-30T21:15:05.729Z,25.44
2018-07-30T21:17:36.274Z,25.38
2018-07-30T21:20:06.902Z,25.39
2018-07-30T21:22:37.436Z,25.32
2018-07-30T21:25:07.901Z,25.36
2018-07-30T21:27:38.305Z,25.36
2018-07-30T21:30:09.550Z,25.32
2018-07-30T21:32:40.088Z,25.33
2018-07-30T21:35:11.325Z,25.35
2018-07-30T21:37:41.696Z,25.39
2018-07-30T21:40:12.287Z,25.39
2018-07-30T21:42:42.997Z,25.41
2018-07-30T21:45:14.566Z,25.38
2018-07-30T21:47:44.974Z,25.37
2018-07-30T21:50:15.576Z,25.37
2018-07-30T21:52:46.137Z,25.35
2018-07-30T21:55:16.527Z,25.33
2018-07-30T21:57:47.149Z,25.32
2018-07-30T22:00:26.505Z,25.32
2018-07-30T22:02:57.777Z,25.34
2018-07-30T22:05:28.370Z,25.33
2018-07-30T22:07:58.883Z,25.30
2018-07-30T22:10:29.480Z,25.26
2018-07-30T22:13:00.119Z,25.21
2018-07-30T22:15:30.698Z,25.18
2018-07-30T22:18:01.107Z,25.17
2018-07-30T22:20:31.574Z,25.16
2018-07-30T22:23:02.655Z,25.17
2018-07-30T22:25:33.328Z,25.14
2018-07-30T22:28:03.927Z,25.18
2018-07-30T22:30:34.399Z,25.16
2018-07-30T22:33:05.277Z,25.10
2018-07-30T22:35:35.632Z,25.15
2018-07-30T22:38:06.335Z,25.12
2018-07-30T22:40:36.937Z,25.08
2018-07-30T22:43:08.530Z,25.06
2018-07-30T22:45:39.312Z,25.05
2018-07-30T22:48:09.734Z,25.04
2018-07-30T22:50:40.117Z,25.01
2018-07-30T22:53:10.708Z,24.99
2018-07-30T22:55:41.279Z,24.97
2018-07-30T22:58:11.571Z,24.92
2018-07-30T23:00:42.166Z,24.92
2018-07-30T23:03:12.551Z,24.91
2018-07-30T23:05:42.941Z,24.91
2018-07-30T23:08:13.690Z,24.91
2018-07-30T23:10:44.034Z,24.90
2018-07-30T23:13:14.510Z,24.91
2018-07-30T23:15:45.095Z,24.84
2018-07-30T23:18:15.718Z,24.88
2018-07-30T23:20:46.159Z,24.58
2018-07-30T23:23:16.609Z,24.41
2018-07-30T23:25:46.960Z,24.17
2018-07-30T23:28:17.652Z,24.14
2018-07-30T23:30:48.957Z,23.97
2018-07-30T23:33:19.501Z,23.76
2018-07-30T23:35:50.197Z,23.73
2018-07-30T23:38:20.786Z,23.73
2018-07-30T23:40:51.297Z,23.74
2018-07-30T23:43:21.629Z,23.82
2018-07-30T23:45:52.144Z,23.84
2018-07-30T23:48:22.594Z,23.86
2018-07-30T23:50:53.043Z,23.87
2018-07-30T23:53:23.497Z,23.93
2018-07-30T23:55:53.978Z,23.90
2018-07-30T23:58:24.318Z,23.90
